Time;durP1;ratioP1;P1;durP2;ratioP2;P2;SDS_P1;SDS_P2;PMS_P1;PMS_P2;Temp;Humidity;BMP_temperature;BMP_pressure;BME280_temperature;BME280_humidity;BME280_pressure;Samples;Min_cycle;Max_cycle;Signal;HPM_P1;HPM_P2
2022/06/03 00:01:55;;;;;;;5.40;4.90;;;;;;;13.20;63.38;99343.28;5017812;28;20084;-76
2022/06/03 00:05:09;;;;;;;4.10;3.47;;;;;;;13.10;63.69;99345.06;5002940;28;20021;-76
2022/06/03 00:07:43;;;;;;;7.40;3.88;;;;;;;13.32;63.30;99346.63;5003494;28;20044;-76
2022/06/03 00:10:18;;;;;;;5.00;3.83;;;;;;;13.01;63.93;99339.31;5004939;28;20034;-76
2022/06/03 00:12:55;;;;;;;5.20;3.83;;;;;;;13.04;63.54;99338.81;5003807;28;20028;-76
2022/06/03 00:15:35;;;;;;;4.45;4.05;;;;;;;13.02;63.72;99335.56;5001292;28;20022;-76
2022/06/03 00:18:10;;;;;;;4.53;4.13;;;;;;;12.99;63.78;99336.09;5001457;28;20036;-76
2022/06/03 00:21:02;;;;;;;4.78;4.35;;;;;;;12.92;63.85;99335.47;4999186;28;20037;-76
2022/06/03 00:23:55;;;;;;;4.53;4.15;;;;;;;12.90;64.07;99342.13;5002157;28;20030;-76
2022/06/03 00:26:38;;;;;;;4.70;4.30;;;;;;;12.90;63.85;99339.44;5001935;28;20053;-76
2022/06/03 00:29:30;;;;;;;4.70;4.30;;;;;;;13.04;63.71;99349.53;4993041;28;20673;-76
2022/06/03 00:32:11;;;;;;;4.57;4.13;;;;;;;12.97;63.67;99350.78;4997629;28;20014;-76
2022/06/03 00:35:01;;;;;;;5.05;3.90;;;;;;;13.08;63.31;99345.31;5003647;28;20030;-76
2022/06/03 00:37:34;;;;;;;4.00;3.60;;;;;;;13.06;63.28;99341.28;5003938;28;20057;-76
2022/06/03 00:40:04;;;;;;;4.32;3.92;;;;;;;12.85;63.75;99334.84;5002231;28;20473;-76
2022/06/03 00:43:14;;;;;;;4.57;3.67;;;;;;;12.91;63.90;99328.47;5004845;28;20029;-76
2022/06/03 00:46:20;;;;;;;4.20;3.88;;;;;;;12.60;64.15;99337.25;5006613;28;20123;-76
2022/06/03 00:48:58;;;;;;;4.55;4.15;;;;;;;12.60;64.64;99330.00;5007408;28;20030;-76
2022/06/03 00:51:32;;;;;;;5.43;4.20;;;;;;;12.50;64.98;99332.56;5028040;28;20038;-76
2022/06/03 00:54:19;;;;;;;6.47;3.78;;;;;;;12.52;64.89;99334.97;5003214;28;20041;-76
2022/06/03 00:57:09;;;;;;;7.88;3.60;;;;;;;12.46;64.96;99335.97;5005920;28;20097;-76
2022/06/03 00:59:53;;;;;;;4.18;3.67;;;;;;;12.38;65.12;99325.72;5012028;28;20026;-76
2022/06/03 01:02:49;;;;;;;6.63;4.18;;;;;;;12.45;64.44;99331.69;5008664;28;20017;-76
2022/06/03 01:05:31;;;;;;;4.28;3.97;;;;;;;12.25;64.46;99318.03;5005937;28;20072;-76
2022/06/03 01:08:19;;;;;;;3.97;3.67;;;;;;;12.71;63.73;99326.38;5004822;28;20718;-76
2022/06/03 01:11:11;;;;;;;6.10;4.43;;;;;;;12.59;63.63;99324.91;5005206;28;20033;-76
2022/06/03 01:13:55;;;;;;;5.85;4.13;;;;;;;12.57;63.96;99325.16;5008765;28;20124;-76
2022/06/03 01:16:53;;;;;;;4.38;3.97;;;;;;;12.45;63.56;99323.66;5007607;28;20108;-76
2022/06/03 01:20:02;;;;;;;3.70;3.40;;;;;;;12.31;64.99;99323.22;5006443;28;20500;-76
2022/06/03 01:23:12;;;;;;;5.15;4.63;;;;;;;12.41;64.37;99325.19;5003478;28;20025;-76
2022/06/03 01:26:12;;;;;;;5.72;4.32;;;;;;;12.35;64.20;99323.53;5004297;28;20044;-76
2022/06/03 01:29:04;;;;;;;4.50;3.75;;;;;;;12.33;64.16;99309.56;5006191;28;20517;-76
2022/06/03 01:31:51;;;;;;;6.65;4.40;;;;;;;12.07;64.97;99311.09;5005266;28;20022;-76
2022/06/03 01:34:45;;;;;;;4.38;3.97;;;;;;;12.30;64.46;99316.22;5006109;28;20112;-76
2022/06/03 01:37:37;;;;;;;4.65;4.07;;;;;;;12.55;63.55;99313.88;5002407;28;20034;-76
2022/06/03 01:40:40;;;;;;;6.63;4.13;;;;;;;12.18;64.64;99304.84;4997617;28;20064;-76
2022/06/03 01:43:22;;;;;;;4.65;4.25;;;;;;;12.14;64.86;99308.25;5004377;28;20033;-76
2022/06/03 01:46:11;;;;;;;4.40;4.00;;;;;;;11.92;64.70;99306.34;5003543;28;20108;-76
2022/06/03 01:48:56;;;;;;;5.22;3.50;;;;;;;11.84;64.83;99305.94;5002816;28;20021;-76
2022/06/03 01:51:53;;;;;;;4.25;3.83;;;;;;;11.97;65.13;99305.59;5020584;28;20045;-76
2022/06/03 01:54:43;;;;;;;4.07;3.42;;;;;;;12.26;64.00;99307.06;5005790;28;20075;-76
2022/06/03 01:57:25;;;;;;;5.57;3.45;;;;;;;11.98;64.49;99300.03;5003206;28;20023;-76
2022/06/03 02:00:12;;;;;;;7.78;4.07;;;;;;;12.25;64.13;99307.34;5005998;28;20032;-76
2022/06/03 02:03:13;;;;;;;3.92;3.45;;;;;;;11.92;65.00;99308.22;5017496;28;20034;-76
2022/06/03 02:06:00;;;;;;;4.20;3.80;;;;;;;11.81;64.77;99291.22;5003605;28;20030;-76
2022/06/03 02:08:44;;;;;;;3.70;3.42;;;;;;;11.79;65.05;99304.03;5005483;28;20040;-76
2022/06/03 02:11:26;;;;;;;6.07;3.85;;;;;;;11.70;65.37;99297.47;5001073;28;20434;-76
2022/06/03 02:14:19;;;;;;;3.88;3.58;;;;;;;11.86;65.15;99309.22;5000553;28;20025;-76
2022/06/03 02:16:53;;;;;;;4.45;3.88;;;;;;;11.66;65.35;99303.50;5003100;28;20045;-76
2022/06/03 02:19:55;;;;;;;3.72;3.42;;;;;;;11.65;65.66;99304.56;5008063;28;20432;-76
2022/06/03 02:22:47;;;;;;;4.10;3.70;;;;;;;11.66;64.93;99290.97;5005904;28;20053;-76
2022/06/03 02:25:34;;;;;;;4.97;4.07;;;;;;;11.91;64.09;99275.31;5003871;28;20503;-76
2022/06/03 02:28:23;;;;;;;4.55;3.72;;;;;;;11.70;64.81;99288.63;5000569;28;20511;-76
2022/06/03 02:31:11;;;;;;;4.28;3.88;;;;;;;11.72;64.60;99292.69;5003372;28;20029;-76
2022/06/03 02:33:57;;;;;;;5.03;4.53;;;;;;;11.30;66.18;99302.13;5006055;28;20030;-76
2022/06/03 02:36:44;;;;;;;4.63;4.22;;;;;;;11.56;65.08;99303.34;4998343;28;20289;-76
2022/06/03 02:39:19;;;;;;;4.47;3.97;;;;;;;11.39;65.63;99291.84;5001787;28;20025;-76
2022/06/03 02:41:53;;;;;;;4.32;3.92;;;;;;;11.57;65.57;99304.97;5000862;28;20022;-76
2022/06/03 02:44:47;;;;;;;5.13;4.35;;;;;;;11.48;65.60;99307.25;5001324;28;20034;-76
2022/06/03 02:47:30;;;;;;;4.60;4.20;;;;;;;11.46;65.79;99311.22;5001796;28;20523;-76
2022/06/03 02:50:25;;;;;;;4.32;4.00;;;;;;;11.58;65.10;99312.75;5002916;28;20021;-76
2022/06/03 02:53:18;;;;;;;5.78;4.10;;;;;;;11.38;65.17;99300.94;5005417;28;20022;-76
2022/06/03 02:56:09;;;;;;;5.63;3.95;;;;;;;11.59;65.40;99298.34;5001681;28;20053;-76
2022/06/03 02:59:17;;;;;;;4.95;4.43;;;;;;;11.30;65.65;99302.13;5001874;28;20113;-76
2022/06/03 03:02:01;;;;;;;4.38;3.97;;;;;;;11.54;64.63;99300.09;5015864;28;20030;-76
2022/06/03 03:04:54;;;;;;;4.85;4.10;;;;;;;11.69;64.68;99303.84;5004237;28;20037;-76
2022/06/03 03:07:47;;;;;;;4.47;4.05;;;;;;;11.60;64.68;99305.28;5004988;28;20053;-76
2022/06/03 03:10:42;;;;;;;5.38;3.70;;;;;;;11.55;64.43;99302.56;5021347;28;20462;-75
2022/06/03 03:13:25;;;;;;;4.20;3.80;;;;;;;11.54;65.14;99292.91;4991906;28;20050;-75
2022/06/03 03:16:09;;;;;;;4.85;4.07;;;;;;;11.55;64.77;99296.38;4993613;28;20061;-75
2022/06/03 03:19:07;;;;;;;4.18;3.78;;;;;;;11.27;64.66;99279.34;4986874;28;20026;-75
2022/06/03 03:22:17;;;;;;;4.63;4.22;;;;;;;11.26;66.01;99301.81;4990015;28;20061;-75
2022/06/03 03:25:01;;;;;;;5.85;4.90;;;;;;;11.17;65.89;99300.56;4997883;28;20050;-75
2022/06/03 03:27:41;;;;;;;5.68;4.05;;;;;;;11.40;65.31;99290.81;4989129;28;20084;-75
2022/06/03 03:30:24;;;;;;;4.63;4.18;;;;;;;11.47;65.04;99292.25;4986894;28;20105;-77
2022/06/03 03:33:32;;;;;;;4.82;4.43;;;;;;;11.40;64.81;99290.81;4986605;28;20080;-77
2022/06/03 03:35:58;;;;;;;5.97;3.97;;;;;;;11.43;65.15;99288.44;5003015;28;20026;-76
2022/06/03 03:38:35;;;;;;;5.07;4.30;;;;;;;11.55;64.97;99305.22;4997245;28;20397;-76
2022/06/03 03:41:23;;;;;;;4.80;4.00;;;;;;;11.51;64.89;99290.69;4999993;28;20616;-76
2022/06/03 03:44:20;;;;;;;6.03;4.70;;;;;;;10.56;67.09;99287.16;4999918;28;20104;-77
2022/06/03 03:46:45;;;;;;;5.28;4.20;;;;;;;10.55;67.65;99289.00;4993810;28;20662;-76
2022/06/03 03:49:17;;;;;;;4.50;4.05;;;;;;;11.08;66.65;99294.00;4988794;28;20069;-77
2022/06/03 03:51:45;;;;;;;8.73;4.70;;;;;;;11.52;65.10;99289.66;4985765;28;20236;-77
2022/06/03 03:54:58;;;;;;;4.90;3.97;;;;;;;11.43;65.53;99292.97;4999295;28;20029;-76
2022/06/03 03:58:00;;;;;;;4.70;4.28;;;;;;;11.35;65.83;99293.38;4996439;28;20069;-77
2022/06/03 04:00:59;;;;;;;4.95;4.55;;;;;;;11.42;65.66;99286.84;4992387;28;20061;-77
2022/06/03 04:03:40;;;;;;;4.78;4.38;;;;;;;11.57;65.39;99286.25;5002690;28;20124;-77
2022/06/03 04:06:31;;;;;;;4.68;4.28;;;;;;;11.42;66.43;99294.84;5008032;28;20056;-76
2022/06/03 04:09:15;;;;;;;4.72;4.32;;;;;;;11.72;65.06;99290.00;5009166;28;20046;-76
2022/06/03 04:12:11;;;;;;;6.68;4.03;;;;;;;11.99;64.36;99284.78;5002825;28;20022;-76
2022/06/03 04:14:45;;;;;;;4.40;4.00;;;;;;;11.82;65.85;99292.00;4998127;28;20037;-76
2022/06/03 04:17:56;;;;;;;6.25;5.32;;;;;;;11.76;66.27;99295.66;4999218;28;20080;-76
2022/06/03 04:20:33;;;;;;;6.82;5.40;;;;;;;10.95;72.22;99298.81;4990067;28;20417;-76
2022/06/03 04:23:36;;;;;;;9.30;6.03;;;;;;;10.68;73.67;99301.25;5004277;28;20504;-76
2022/06/03 04:26:26;;;;;;;7.20;5.43;;;;;;;10.76;73.69;99289.41;5005269;28;20030;-76
2022/06/03 04:29:04;;;;;;;6.32;5.68;;;;;;;11.14;73.09;99281.53;4993600;28;20030;-76
2022/06/03 04:32:03;;;;;;;6.65;6.03;;;;;;;11.05;74.52;99289.13;4993363;28;20627;-76
2022/06/03 04:34:49;;;;;;;7.15;5.78;;;;;;;11.04;74.24;99284.03;4986576;28;20053;-76
2022/06/03 04:38:05;;;;;;;8.20;5.80;;;;;;;11.04;74.10;99284.84;4983019;28;20045;-76
2022/06/03 04:41:18;;;;;;;7.18;6.47;;;;;;;11.49;73.20;99292.81;4997434;28;20153;-76
2022/06/03 04:44:14;;;;;;;6.40;4.80;;;;;;;12.00;69.21;99283.72;4958979;28;20109;-76
2022/06/03 04:47:27;;;;;;;6.43;5.82;;;;;;;11.63;71.14;99278.06;4989527;28;20068;-76
2022/06/03 04:50:13;;;;;;;6.95;6.10;;;;;;;11.55;72.81;99288.38;4980109;28;20120;-76
2022/06/03 04:52:41;;;;;;;;;;;;;;;11.45;72.59;99286.34;5004458;28;20481;-76
2022/06/03 04:55:30;;;;;;;6.20;5.70;;;;;;;11.54;71.71;99282.19;5017513;28;19920;-76
2022/06/03 04:58:37;;;;;;;6.18;5.38;;;;;;;11.57;72.71;99283.59;5016499;28;20125;-76
2022/06/03 05:01:27;;;;;;;6.47;5.63;;;;;;;11.56;72.01;99288.13;5006602;28;20375;-76
2022/06/03 05:04:00;;;;;;;6.85;6.15;;;;;;;11.16;73.72;99290.94;5011340;28;20026;-76
2022/06/03 05:06:54;;;;;;;6.13;5.05;;;;;;;11.86;71.04;99283.25;5004350;28;20053;-76
2022/06/03 05:09:42;;;;;;;5.90;5.32;;;;;;;12.08;70.58;99274.47;5008348;28;20038;-76
2022/06/03 05:12:07;;;;;;;10.18;5.90;;;;;;;12.20;70.07;99261.75;5008886;28;20034;-76
2022/06/03 05:14:51;;;;;;;6.65;5.97;;;;;;;12.77;67.97;99279.03;4999767;28;20032;-76
2022/06/03 05:17:33;;;;;;;6.70;5.22;;;;;;;13.15;65.81;99260.16;5009613;28;20025;-76
2022/06/03 05:20:07;;;;;;;8.55;6.10;;;;;;;12.60;70.18;99267.63;5003734;28;20588;-76
2022/06/03 05:23:10;;;;;;;11.10;7.03;;;;;;;12.37;70.79;99270.53;5009522;28;20044;-76
2022/06/03 05:25:56;;;;;;;6.68;5.78;;;;;;;12.22;71.38;99262.31;5010380;28;20029;-76
2022/06/03 05:28:50;;;;;;;8.43;6.82;;;;;;;11.31;73.66;99258.31;5004763;28;20030;-77
2022/06/03 05:31:18;;;;;;;8.48;6.50;;;;;;;12.08;71.71;99263.75;5022096;28;20036;-76
2022/06/03 05:34:16;;;;;;;9.50;7.00;;;;;;;11.16;73.63;99253.53;5003598;28;20409;-76
2022/06/03 05:37:00;;;;;;;9.30;6.85;;;;;;;11.52;75.05;99259.44;5005859;28;20120;-76
2022/06/03 05:39:44;;;;;;;7.70;7.00;;;;;;;11.24;76.15;99247.78;5009555;28;20030;-76
2022/06/03 05:42:43;;;;;;;8.13;7.32;;;;;;;11.71;73.71;99242.91;5007464;28;21572;-76
2022/06/03 05:45:23;;;;;;;8.20;6.72;;;;;;;11.22;75.15;99251.75;5004981;28;20033;-76
2022/06/03 05:48:03;;;;;;;9.73;7.43;;;;;;;11.44;76.52;99252.66;5009240;28;20069;-76
2022/06/03 05:50:49;;;;;;;6.35;5.75;;;;;;;12.87;68.99;99241.63;5008545;28;20026;-76
2022/06/03 05:53:38;;;;;;;6.10;5.60;;;;;;;12.84;69.13;99238.66;5006896;28;20445;-77
2022/06/03 05:56:22;;;;;;;13.00;7.05;;;;;;;12.77;71.69;99255.75;5001143;28;20041;-76
2022/06/03 05:58:56;;;;;;;7.45;6.65;;;;;;;12.20;73.34;99243.03;5020706;28;20025;-76
2022/06/03 06:01:44;;;;;;;11.02;7.85;;;;;;;11.50;74.33;99238.31;5006154;28;20053;-76
2022/06/03 06:04:26;;;;;;;8.25;6.60;;;;;;;11.86;75.57;99240.44;5002912;28;20026;-76
2022/06/03 06:06:51;;;;;;;9.30;7.30;;;;;;;11.77;73.09;99246.50;4998214;28;20064;-76
2022/06/03 06:09:25;;;;;;;9.73;7.53;;;;;;;12.16;72.61;99231.22;5002159;28;20053;-76
2022/06/03 06:12:20;;;;;;;12.70;7.43;;;;;;;12.10;74.44;99224.97;4998380;28;20037;-76
2022/06/03 06:15:16;;;;;;;6.30;5.70;;;;;;;12.59;70.90;99221.28;5000506;28;20030;-76
2022/06/03 06:17:47;;;;;;;9.93;7.78;;;;;;;12.58;73.82;99237.59;5011412;28;20025;-77
2022/06/03 06:20:45;;;;;;;7.88;6.18;;;;;;;12.66;71.86;99229.13;5004063;28;20213;-77
2022/06/03 06:23:36;;;;;;;13.45;7.28;;;;;;;12.29;72.79;99220.94;5020761;28;20235;-76
2022/06/03 06:26:36;;;;;;;7.03;6.03;;;;;;;12.83;71.14;99229.81;5016606;28;20068;-77
2022/06/03 06:29:19;;;;;;;7.95;7.13;;;;;;;12.69;73.84;99236.63;5007177;28;20033;-76
2022/06/03 06:32:09;;;;;;;9.80;6.82;;;;;;;13.17;73.00;99228.53;4999956;28;20026;-77
2022/06/03 06:34:40;;;;;;;8.38;7.13;;;;;;;12.97;72.18;99231.03;5005055;28;20029;-77
2022/06/03 06:37:46;;;;;;;7.63;6.20;;;;;;;13.12;70.91;99233.88;5005950;28;20056;-76
2022/06/03 06:40:16;;;;;;;7.93;7.10;;;;;;;13.54;70.42;99224.00;5006360;28;20543;-77
2022/06/03 06:43:23;;;;;;;7.72;6.60;;;;;;;13.32;71.92;99228.66;4995855;28;20030;-76
2022/06/03 06:46:10;;;;;;;8.90;7.18;;;;;;;12.96;71.10;99229.41;5001257;28;20124;-76
2022/06/03 06:48:38;;;;;;;9.48;6.97;;;;;;;13.39;71.13;99231.13;5005316;28;20390;-76
2022/06/03 06:51:28;;;;;;;9.60;6.97;;;;;;;13.51;69.79;99218.34;5009417;28;20038;-77
2022/06/03 06:54:10;;;;;;;7.53;6.65;;;;;;;13.45;69.75;99224.75;5007639;28;20049;-77
2022/06/03 06:56:46;;;;;;;9.55;7.68;;;;;;;13.56;69.26;99214.88;5006471;28;20803;-77
2022/06/03 06:59:23;;;;;;;9.57;6.53;;;;;;;14.37;68.71;99214.25;5006867;28;20426;-77
2022/06/03 07:01:56;;;;;;;6.47;5.85;;;;;;;14.68;67.69;99204.38;5008913;28;20048;-77
2022/06/03 07:04:30;;;;;;;10.18;7.35;;;;;;;15.00;67.13;99223.78;5024227;28;20485;-77
2022/06/03 07:07:41;;;;;;;4.97;4.45;;;;;;;15.36;65.97;99220.00;5009552;28;20026;-77
2022/06/03 07:10:07;;;;;;;9.18;6.45;;;;;;;14.77;66.37;99221.59;4991163;28;20374;-77
2022/06/03 07:12:42;;;;;;;6.65;5.85;;;;;;;15.23;65.74;99225.94;5009372;28;20030;-77
2022/06/03 07:15:50;;;;;;;11.53;6.83;;;;;;;15.08;66.50;99212.50;5011819;28;20030;-77
2022/06/03 07:21:33;;;;;;;9.95;6.30;;;;;;;15.19;65.88;99202.53;5006385;28;20085;-77
2022/06/03 07:24:08;;;;;;;6.38;5.78;;;;;;;15.59;64.22;99206.03;5004024;28;20498;-77
2022/06/03 07:26:44;;;;;;;11.20;6.85;;;;;;;15.70;64.97;99201.44;5004019;28;20044;-77
2022/06/03 07:29:42;;;;;;;7.25;5.45;;;;;;;15.54;64.18;99200.66;5016065;28;20389;-76
2022/06/03 07:32:21;;;;;;;10.57;6.70;;;;;;;15.11;65.39;99203.91;4996202;28;20046;-76
2022/06/03 07:34:52;;;;;;;6.50;5.80;;;;;;;14.91;61.95;99188.56;5004696;28;20116;-76
2022/06/03 07:37:30;;;;;;;9.40;6.30;;;;;;;15.09;63.96;99186.41;5007541;28;20532;-76
2022/06/03 07:40:23;;;;;;;7.68;6.88;;;;;;;15.31;64.32;99192.34;4989939;28;20485;-76
2022/06/03 07:43:09;;;;;;;7.47;6.03;;;;;;;15.82;64.76;99193.88;5007260;28;20497;-77
2022/06/03 07:45:56;;;;;;;6.30;5.70;;;;;;;15.21;64.09;99171.63;5006142;28;20129;-76
2022/06/03 07:48:25;;;;;;;6.45;5.45;;;;;;;15.38;64.41;99182.06;5004979;28;20026;-76
2022/06/03 07:51:31;;;;;;;7.60;5.88;;;;;;;15.17;63.39;99172.44;5007789;28;20032;-76
2022/06/03 07:54:20;;;;;;;6.63;5.93;;;;;;;15.29;64.34;99162.22;4996630;28;20063;-76
2022/06/03 07:56:46;;;;;;;7.88;6.90;;;;;;;15.19;64.41;99179.16;5018582;28;20118;-76
2022/06/03 07:59:18;;;;;;;6.55;5.05;;;;;;;15.59;64.28;99157.63;4991385;28;20113;-76
2022/06/03 08:01:55;;;;;;;6.00;5.20;;;;;;;15.60;63.11;99169.97;5004794;28;20121;-76
2022/06/03 08:04:33;;;;;;;5.95;5.35;;;;;;;15.56;63.78;99150.06;5006081;28;20041;-76
2022/06/03 08:12:55;;;;;;;6.75;5.28;;;;;;;15.62;62.38;99135.53;5007822;28;20076;-76
2022/06/03 08:15:28;;;;;;;6.95;5.75;;;;;;;15.69;61.53;99132.53;5007252;28;20489;-76
2022/06/03 08:17:53;;;;;;;6.40;4.47;;;;;;;15.94;62.90;99137.84;5002093;28;20057;-76
2022/06/03 08:20:21;;;;;;;4.78;3.78;;;;;;;16.16;59.85;99143.63;5007171;28;20065;-76
2022/06/03 08:22:47;;;;;;;6.03;4.63;;;;;;;16.55;60.32;99142.91;5003552;28;20070;-76
2022/06/03 08:25:18;;;;;;;5.00;3.70;;;;;;;16.36;57.44;99146.22;5004962;28;20057;-76
2022/06/03 08:27:46;;;;;;;3.95;3.67;;;;;;;16.68;58.75;99153.06;5003430;28;20504;-76
2022/06/03 08:30:17;;;;;;;4.03;3.72;;;;;;;16.62;57.38;99152.28;5004810;28;20041;-76
2022/06/03 08:32:49;;;;;;;4.80;4.40;;;;;;;16.80;57.53;99146.22;5004478;28;20026;-76
2022/06/03 08:35:18;;;;;;;3.88;3.58;;;;;;;16.78;56.17;99150.28;5005259;28;20045;-76
2022/06/03 08:37:55;;;;;;;3.70;3.40;;;;;;;17.09;56.91;99146.25;5001950;28;20041;-77
2022/06/03 08:40:20;;;;;;;3.80;3.40;;;;;;;17.49;58.79;99139.69;5017019;28;20084;-76
2022/06/03 08:42:52;;;;;;;3.63;3.28;;;;;;;17.77;57.60;99142.38;5003785;28;20116;-76
2022/06/03 08:45:24;;;;;;;4.75;3.10;;;;;;;17.83;56.73;99138.50;5004233;28;20025;-76
2022/06/03 08:47:55;;;;;;;4.03;3.58;;;;;;;17.81;56.49;99124.50;5003340;28;20054;-76
2022/06/03 08:50:37;;;;;;;7.30;3.38;;;;;;;17.93;56.48;99134.91;5003634;28;20527;-76
2022/06/03 08:53:11;;;;;;;3.42;2.80;;;;;;;18.06;54.87;99127.97;5004085;28;20482;-76
2022/06/03 08:55:54;;;;;;;3.50;3.20;;;;;;;18.08;55.76;99125.78;4999741;28;20029;-76
2022/06/03 08:58:30;;;;;;;4.35;3.15;;;;;;;18.05;53.40;99118.25;5001507;28;20041;-76
2022/06/03 09:00:55;;;;;;;3.47;3.20;;;;;;;17.89;53.50;99123.84;5004906;28;20025;-76
2022/06/03 09:03:23;;;;;;;3.92;3.22;;;;;;;18.01;54.11;99122.63;5003727;28;20359;-76
2022/06/03 09:06:16;;;;;;;4.43;3.00;;;;;;;18.05;54.13;99113.66;5002945;28;20413;-76
2022/06/03 09:08:54;;;;;;;3.13;2.83;;;;;;;18.12;54.31;99105.19;5000247;28;20026;-76
2022/06/03 09:11:44;;;;;;;2.78;2.55;;;;;;;18.34;54.89;99116.22;5009782;28;20049;-76
2022/06/03 09:14:17;;;;;;;4.50;2.90;;;;;;;18.43;52.98;99120.69;5016900;28;20072;-76
2022/06/03 09:16:44;;;;;;;2.80;2.55;;;;;;;18.66;55.03;99122.53;5001965;28;20485;-76
2022/06/03 09:19:17;;;;;;;2.88;2.67;;;;;;;18.31;51.88;99106.81;5005426;28;20034;-76
2022/06/03 09:21:46;;;;;;;2.95;2.67;;;;;;;18.50;53.43;99117.66;5005802;28;20034;-76
2022/06/03 09:24:29;;;;;;;4.65;2.72;;;;;;;18.47;52.77;99110.13;5008545;28;20061;-76
2022/06/03 09:26:57;;;;;;;2.80;2.60;;;;;;;18.33;53.20;99096.50;5021388;28;20026;-76
2022/06/03 09:29:24;;;;;;;3.63;3.28;;;;;;;18.70;52.19;99106.50;5008588;28;20041;-76
2022/06/03 09:31:59;;;;;;;2.63;2.42;;;;;;;18.67;52.74;99120.63;5007775;28;20057;-76
2022/06/03 09:34:54;;;;;;;2.45;2.25;;;;;;;18.61;53.11;99114.50;5008432;28;20025;-76
2022/06/03 09:37:33;;;;;;;2.78;2.20;;;;;;;18.81;51.85;99105.25;5007396;28;20037;-76
2022/06/03 09:40:01;;;;;;;2.80;2.25;;;;;;;18.76;51.77;99108.06;5010733;28;20160;-76
2022/06/03 09:42:31;;;;;;;2.55;2.35;;;;;;;18.99;53.08;99104.41;5004213;28;20725;-76
2022/06/03 09:45:01;;;;;;;2.72;2.38;;;;;;;18.91;51.28;99107.81;5009958;28;20018;-76
2022/06/03 09:47:28;;;;;;;2.20;2.00;;;;;;;19.42;52.44;99108.53;5005868;28;20030;-76
2022/06/03 09:49:54;;;;;;;2.45;2.20;;;;;;;19.64;52.69;99107.03;5010260;28;20053;-76
2022/06/03 09:52:23;;;;;;;2.45;2.25;;;;;;;19.51;51.18;99095.09;5001993;28;20111;-76
2022/06/03 09:54:49;;;;;;;2.67;2.30;;;;;;;19.70;50.69;99103.91;5019014;28;20034;-76
2022/06/03 09:57:23;;;;;;;2.03;1.88;;;;;;;19.59;50.13;99094.41;5003830;28;20034;-76
2022/06/03 09:59:57;;;;;;;2.42;2.22;;;;;;;19.40;50.04;99090.97;5013756;28;20041;-76
2022/06/03 10:02:25;;;;;;;4.55;2.03;;;;;;;19.83;51.51;99100.41;5011185;28;20026;-76
2022/06/03 10:04:51;;;;;;;3.75;2.13;;;;;;;19.75;50.50;99092.97;5004624;28;20071;-76
2022/06/03 10:07:16;;;;;;;2.40;2.20;;;;;;;19.51;51.28;99086.97;5005247;28;20025;-76
2022/06/03 10:12:49;;;;;;;2.72;2.53;;;;;;;19.90;50.71;99102.69;5006323;28;20397;-77
2022/06/03 10:15:44;;;;;;;2.33;1.88;;;;;;;19.46;49.78;99081.69;5005453;28;20389;-76
2022/06/03 10:18:21;;;;;;;3.25;1.98;;;;;;;19.94;50.94;99088.25;5023784;28;20059;-76
2022/06/03 10:20:49;;;;;;;2.45;2.25;;;;;;;20.22;49.23;99083.63;5005479;28;20401;-77
2022/06/03 10:23:14;;;;;;;2.70;2.35;;;;;;;20.05;49.37;99075.31;5008249;28;20041;-76
2022/06/03 10:25:45;;;;;;;3.78;2.30;;;;;;;20.26;49.22;99078.38;5008519;28;20042;-77
2022/06/03 10:28:12;;;;;;;2.58;2.17;;;;;;;20.08;49.70;99067.34;5006666;28;20397;-76
2022/06/03 10:30:41;;;;;;;3.15;2.10;;;;;;;20.38;48.43;99068.59;5005261;28;20037;-76
2022/06/03 10:33:15;;;;;;;2.42;2.20;;;;;;;20.48;49.65;99062.94;5006096;28;20105;-76
2022/06/03 10:35:41;;;;;;;3.28;2.03;;;;;;;20.53;46.65;99065.50;5008017;28;20022;-76
2022/06/03 10:38:07;;;;;;;6.55;2.30;;;;;;;20.70;46.82;99048.56;5007393;28;20049;-77
2022/06/03 10:40:33;;;;;;;2.03;1.92;;;;;;;21.14;48.31;99053.97;4991508;28;20038;-77
2022/06/03 10:43:01;;;;;;;2.47;2.28;;;;;;;20.74;47.99;99052.28;5007885;28;20516;-77
2022/06/03 10:45:35;;;;;;;2.40;2.20;;;;;;;20.46;48.03;99057.03;5009642;28;20029;-77
2022/06/03 10:48:17;;;;;;;2.33;1.95;;;;;;;21.01;48.58;99054.84;5007191;28;20477;-76
2022/06/03 10:50:42;;;;;;;4.22;1.80;;;;;;;20.84;49.08;99052.00;5006244;28;20080;-76
2022/06/03 11:01:39;;;;;;;2.22;2.10;;;;;;;21.47;47.26;99030.75;4996753;28;21191;-76
2022/06/03 11:04:05;;;;;;;2.67;1.40;;;;;;;21.72;47.19;99042.81;5004842;28;20064;-75
2022/06/03 11:06:38;;;;;;;2.38;2.15;;;;;;;21.52;46.69;99022.47;5004018;28;20061;-77
2022/06/03 11:09:07;;;;;;;3.85;1.90;;;;;;;22.07;47.01;99028.22;5002164;28;20061;-76
2022/06/03 11:11:34;;;;;;;3.05;1.95;;;;;;;22.34;47.87;99027.09;5006636;28;20393;-74
2022/06/03 11:14:28;;;;;;;3.92;1.80;;;;;;;22.71;46.90;99021.00;5008965;28;20466;-75
2022/06/03 11:16:53;;;;;;;2.42;1.95;;;;;;;22.69;46.21;99017.81;5003828;28;20113;-77
2022/06/03 11:19:20;;;;;;;1.98;1.88;;;;;;;22.13;45.98;99007.88;5005501;28;20667;-75
2022/06/03 11:21:46;;;;;;;4.80;1.80;;;;;;;22.46;45.64;99012.81;5023982;28;20038;-74
2022/06/03 11:24:11;;;;;;;4.43;1.92;;;;;;;22.77;45.57;99008.00;5004149;28;20096;-75
2022/06/03 11:26:44;;;;;;;1.90;1.80;;;;;;;22.81;46.10;99012.47;5004732;28;20037;-77
2022/06/03 11:29:32;;;;;;;1.70;1.60;;;;;;;23.32;45.70;98999.81;5019401;28;20052;-76
2022/06/03 11:32:00;;;;;;;2.17;1.83;;;;;;;23.10;44.20;98992.69;5007623;28;20037;-76
2022/06/03 11:34:28;;;;;;;1.73;1.60;;;;;;;23.28;45.73;99005.13;5007753;28;20076;-77
2022/06/03 11:36:58;;;;;;;1.98;1.80;;;;;;;22.83;45.53;99004.78;5006065;28;20439;-77
2022/06/03 11:39:33;;;;;;;2.28;1.90;;;;;;;23.06;46.31;98999.91;5004149;28;20037;-76
2022/06/03 11:42:02;;;;;;;2.25;2.05;;;;;;;23.47;46.66;98975.56;5004679;28;20029;-77
2022/06/03 11:44:44;;;;;;;5.68;1.60;;;;;;;24.19;44.58;98980.66;5002072;28;20037;-77
2022/06/03 11:47:20;;;;;;;6.35;2.60;;;;;;;24.15;44.35;98982.47;5004145;28;20033;-77
2022/06/03 11:49:46;;;;;;;1.83;1.73;;;;;;;24.10;43.96;98990.03;5008031;28;20485;-76
2022/06/03 11:52:12;;;;;;;2.67;1.88;;;;;;;24.25;43.42;98976.59;5004104;28;20026;-76
2022/06/03 11:54:39;;;;;;;3.53;2.05;;;;;;;24.30;43.70;98984.59;5002561;28;20033;-77
2022/06/03 11:57:07;;;;;;;2.05;1.58;;;;;;;25.09;43.43;98984.25;4998680;28;20112;-76
2022/06/03 11:59:41;;;;;;;1.98;1.83;;;;;;;24.51;42.02;98970.88;4999711;28;20125;-77
2022/06/03 12:02:38;;;;;;;1.83;1.73;;;;;;;25.66;43.22;98975.16;5004020;28;20025;-76
2022/06/03 12:05:19;;;;;;;5.65;1.60;;;;;;;25.29;40.96;98975.13;4998758;28;20489;-77
2022/06/03 12:07:55;;;;;;;2.40;1.85;;;;;;;24.97;41.87;98976.03;5005840;28;20116;-76
2022/06/03 12:10:26;;;;;;;4.72;1.52;;;;;;;25.12;40.81;98964.44;4999350;28;20030;-76
2022/06/03 12:13:17;;;;;;;2.97;1.98;;;;;;;24.91;42.80;98966.47;5004564;28;20030;-76
2022/06/03 12:15:56;;;;;;;2.08;1.90;;;;;;;24.72;42.18;98962.66;4999396;28;20034;-76
2022/06/03 12:18:42;;;;;;;3.15;1.63;;;;;;;24.55;41.61;98963.63;4996638;28;20030;-77
2022/06/03 12:21:08;;;;;;;3.70;1.70;;;;;;;24.38;43.43;98948.22;5009878;28;20034;-76
2022/06/03 12:23:33;;;;;;;2.20;2.00;;;;;;;23.90;43.23;98947.97;5005246;28;20049;-77
2022/06/03 12:25:58;;;;;;;1.88;1.77;;;;;;;24.33;43.51;98942.97;5002796;28;20033;-76
2022/06/03 12:28:36;;;;;;;2.63;2.38;;;;;;;24.30;42.68;98934.66;5001971;28;20543;-77
2022/06/03 12:31:24;;;;;;;1.70;1.60;;;;;;;24.54;43.82;98926.56;5003373;28;20026;-77
2022/06/03 12:33:58;;;;;;;3.17;2.08;;;;;;;24.25;41.92;98938.41;5004258;28;20037;-77
2022/06/03 12:36:40;;;;;;;1.70;1.60;;;;;;;24.85;42.13;98918.69;5002021;28;20084;-77
2022/06/03 12:39:18;;;;;;;1.67;1.55;;;;;;;24.39;42.51;98928.00;5005714;28;20076;-77
2022/06/03 12:41:46;;;;;;;2.78;1.75;;;;;;;24.51;42.04;98929.94;5024802;28;20501;-77
2022/06/03 12:44:34;;;;;;;2.00;1.58;;;;;;;24.74;40.99;98922.16;5002895;28;20030;-77
2022/06/03 12:47:18;;;;;;;1.95;1.80;;;;;;;25.17;41.48;98912.28;5005057;28;20025;-77
2022/06/03 12:49:43;;;;;;;3.30;1.88;;;;;;;25.20;41.14;98908.88;5003569;28;20061;-76
2022/06/03 12:52:31;;;;;;;1.60;1.50;;;;;;;25.73;42.96;98902.31;4999511;28;20144;-77
2022/06/03 12:54:56;;;;;;;3.22;2.35;;;;;;;24.39;41.75;98919.00;5008854;28;20038;-77
2022/06/03 12:57:27;;;;;;;2.53;2.15;;;;;;;24.63;41.38;98912.81;5006232;28;20026;-76
2022/06/03 13:00:00;;;;;;;1.95;1.40;;;;;;;25.05;43.91;98916.97;5003100;28;20113;-77
2022/06/03 13:02:29;;;;;;;2.30;2.10;;;;;;;24.36;42.87;98915.03;5017763;28;20058;-76